Time;durP1;ratioP1;P1;durP2;ratioP2;P2;SDS_P1;SDS_P2;PMS_P1;PMS_P2;Temp;Humidity;BMP_temperature;BMP_pressure;BME280_temperature;BME280_humidity;BME280_pressure;Samples;Min_cycle;Max_cycle;Signal;HPM_P1;HPM_P2
2023/03/25 00:00:19;;;;;;;1.05;0.40;;;;;;;;;;5006271;28;20030;-79
2023/03/25 00:02:47;;;;;;;1.83;0.60;;;;;;;;;;5008372;28;20041;-80
2023/03/25 00:05:14;;;;;;;2.13;0.85;;;;;;;;;;5012487;28;20034;-80
2023/03/25 00:07:41;;;;;;;1.25;0.50;;;;;;;;;;5000461;28;20073;-80
2023/03/25 00:10:07;;;;;;;2.05;0.55;;;;;;;;;;5003421;28;20022;-80
2023/03/25 00:12:33;;;;;;;1.75;0.70;;;;;;;;;;5007796;28;20022;-78
2023/03/25 00:14:59;;;;;;;1.88;0.60;;;;;;;;;;5001087;28;20036;-79
2023/03/25 00:17:27;;;;;;;2.05;0.60;;;;;;;;;;5017580;28;20389;-80
2023/03/25 00:19:54;;;;;;;1.92;0.57;;;;;;;;;;5003260;28;20026;-80
2023/03/25 00:22:21;;;;;;;1.33;0.43;;;;;;;;;;4997457;28;20034;-80
2023/03/25 00:24:47;;;;;;;2.60;0.73;;;;;;;;;;5002809;28;20100;-80
2023/03/25 00:27:16;;;;;;;1.13;0.40;;;;;;;;;;5013536;28;20030;-79
2023/03/25 00:29:42;;;;;;;1.48;0.60;;;;;;;;;;5014098;28;20018;-79
2023/03/25 00:32:09;;;;;;;1.48;0.50;;;;;;;;;;5012745;28;20048;-80
2023/03/25 00:34:40;;;;;;;1.15;0.50;;;;;;;;;;4997630;28;20026;-80
2023/03/25 00:37:09;;;;;;;1.20;0.40;;;;;;;;;;4998461;28;20030;-80
2023/03/25 00:39:38;;;;;;;1.48;0.40;;;;;;;;;;5008784;28;20022;-81
2023/03/25 00:42:04;;;;;;;1.70;0.50;;;;;;;;;;5011395;28;20036;-78
2023/03/25 00:44:31;;;;;;;0.60;0.30;;;;;;;;;;4998151;28;20394;-80
2023/03/25 00:46:57;;;;;;;1.30;0.50;;;;;;;;;;5007206;28;20562;-79
2023/03/25 00:49:23;;;;;;;0.95;0.50;;;;;;;;;;5011790;28;20026;-80
2023/03/25 00:51:50;;;;;;;0.65;0.40;;;;;;;;;;5005147;28;20026;-80
2023/03/25 00:54:17;;;;;;;1.13;0.38;;;;;;;;;;5009154;28;20022;-81
2023/03/25 00:56:43;;;;;;;1.63;0.45;;;;;;;;;;5001934;28;20034;-79
2023/03/25 00:59:09;;;;;;;2.25;0.57;;;;;;;;;;5022115;28;20034;-80
2023/03/25 01:01:38;;;;;;;1.13;0.43;;;;;;;;;;5006597;28;20097;-80
2023/03/25 01:04:10;;;;;;;0.90;0.40;;;;;;;;;;5006089;28;20501;-80
2023/03/25 01:06:37;;;;;;;1.15;0.55;;;;;;;;;;5000844;28;20019;-79
2023/03/25 01:09:06;;;;;;;2.30;0.65;;;;;;;;;;5001266;28;20479;-79
2023/03/25 01:11:33;;;;;;;1.10;0.40;;;;;;;;;;5011314;28;20022;-81
2023/03/25 01:14:00;;;;;;;2.42;0.63;;;;;;;;;;5014052;28;20026;-82
2023/03/25 01:16:26;;;;;;;0.82;0.40;;;;;;;;;;5007724;28;20022;-81
2023/03/25 01:18:54;;;;;;;0.90;0.40;;;;;;;;;;5007153;28;20452;-81
2023/03/25 01:21:20;;;;;;;1.23;0.52;;;;;;;;;;5017478;28;20033;-80
2023/03/25 01:23:46;;;;;;;1.90;0.73;;;;;;;;;;5008349;28;20053;-81
2023/03/25 01:26:12;;;;;;;2.08;0.70;;;;;;;;;;5016664;28;20080;-79
2023/03/25 01:28:39;;;;;;;1.70;0.47;;;;;;;;;;5011697;28;20022;-82
2023/03/25 01:31:07;;;;;;;1.75;0.52;;;;;;;;;;5007081;28;20026;-80
2023/03/25 01:33:33;;;;;;;1.25;0.50;;;;;;;;;;5027096;28;20024;-80
2023/03/25 01:36:00;;;;;;;1.88;0.40;;;;;;;;;;5020399;28;20037;-81
2023/03/25 01:38:26;;;;;;;1.85;0.65;;;;;;;;;;5007538;28;20034;-82
2023/03/25 01:40:53;;;;;;;1.83;0.57;;;;;;;;;;4997893;28;20022;-81
2023/03/25 01:43:20;;;;;;;1.58;0.55;;;;;;;;;;5008429;28;20034;-81
2023/03/25 01:45:46;;;;;;;1.88;0.65;;;;;;;;;;4999631;28;20034;-81
2023/03/25 01:48:16;;;;;;;1.33;0.50;;;;;;;;;;5012285;28;20152;-81
2023/03/25 01:50:44;;;;;;;1.85;0.50;;;;;;;;;;5010332;28;20068;-81
2023/03/25 01:53:11;;;;;;;2.25;0.82;;;;;;;;;;5009206;28;20077;-81
2023/03/25 01:55:38;;;;;;;1.38;0.60;;;;;;;;;;5006095;28;20025;-82
2023/03/25 01:58:09;;;;;;;2.00;0.47;;;;;;;;;;5005285;28;20054;-81
2023/03/25 02:00:36;;;;;;;2.00;0.60;;;;;;;;;;5019139;28;20030;-80
2023/03/25 02:03:02;;;;;;;1.13;0.50;;;;;;;;;;5001813;28;20038;-80
2023/03/25 02:05:39;;;;;;;1.92;0.60;;;;;;;;;;5015732;28;20099;-79
2023/03/25 02:08:08;;;;;;;3.03;0.70;;;;;;;;;;5002078;28;20596;-80
2023/03/25 02:10:34;;;;;;;2.17;0.60;;;;;;;;;;5014087;28;20393;-81
2023/03/25 02:13:01;;;;;;;1.73;0.60;;;;;;;;;;5018416;28;20014;-80
2023/03/25 02:15:28;;;;;;;2.53;0.63;;;;;;;;;;5017975;28;20540;-81
2023/03/25 02:18:03;;;;;;;1.63;0.60;;;;;;;;;;5015908;28;20056;-80
2023/03/25 02:20:48;;;;;;;2.17;0.80;;;;;;;;;;5004963;28;20052;-81
2023/03/25 02:23:20;;;;;;;2.50;0.80;;;;;;;;;;5018982;28;20133;-80
2023/03/25 02:26:05;;;;;;;2.63;0.90;;;;;;;;;;4999981;28;20030;-80
2023/03/25 02:28:46;;;;;;;2.40;0.80;;;;;;;;;;5013478;28;20045;-79
2023/03/25 02:31:15;;;;;;;2.30;0.80;;;;;;;;;;5007834;28;20026;-79
2023/03/25 02:33:41;;;;;;;2.42;0.90;;;;;;;;;;5005342;28;20082;-79
2023/03/25 02:36:29;;;;;;;2.78;1.00;;;;;;;;;;4999185;28;20235;-80
2023/03/25 02:39:07;;;;;;;2.50;0.90;;;;;;;;;;4998344;28;20394;-80
2023/03/25 02:41:49;;;;;;;3.22;1.20;;;;;;;;;;5009040;28;20026;-79
2023/03/25 02:44:21;;;;;;;3.50;1.10;;;;;;;;;;5009293;28;20025;-80
2023/03/25 02:46:50;;;;;;;3.50;1.30;;;;;;;;;;5016187;28;20058;-80
2023/03/25 02:49:19;;;;;;;2.90;1.10;;;;;;;;;;5009100;28;20030;-80
2023/03/25 02:51:49;;;;;;;3.20;1.00;;;;;;;;;;5008801;28;20022;-80
2023/03/25 02:54:16;;;;;;;3.30;1.30;;;;;;;;;;5002204;28;20037;-80
2023/03/25 02:56:44;;;;;;;4.95;1.20;;;;;;;;;;5005264;28;20049;-80
2023/03/25 02:59:13;;;;;;;2.85;1.10;;;;;;;;;;5011022;28;20022;-81
2023/03/25 03:01:39;;;;;;;3.75;1.17;;;;;;;;;;5009252;28;20053;-81
2023/03/25 03:04:06;;;;;;;2.50;1.23;;;;;;;;;;5008947;28;20017;-80
2023/03/25 03:06:36;;;;;;;3.25;1.23;;;;;;;;;;5007487;28;20049;-81
2023/03/25 03:09:12;;;;;;;3.05;1.33;;;;;;;;;;5010075;28;20022;-81
2023/03/25 03:11:59;;;;;;;3.65;1.40;;;;;;;;;;5004720;28;20068;-80
2023/03/25 03:14:34;;;;;;;3.42;1.50;;;;;;;;;;5001135;28;20030;-80
2023/03/25 03:17:03;;;;;;;3.60;1.52;;;;;;;;;;5015448;28;20072;-80
2023/03/25 03:19:30;;;;;;;3.80;1.55;;;;;;;;;;5007435;28;20959;-81
2023/03/25 03:22:00;;;;;;;3.20;1.60;;;;;;;;;;5000167;28;20443;-80
2023/03/25 03:24:34;;;;;;;3.97;1.65;;;;;;;;;;5002517;28;20081;-80
2023/03/25 03:27:15;;;;;;;3.60;1.50;;;;;;;;;;5015169;28;20053;-80
2023/03/25 03:29:46;;;;;;;3.90;1.70;;;;;;;;;;5012033;28;20512;-81
2023/03/25 03:32:16;;;;;;;3.85;1.70;;;;;;;;;;5010552;28;20041;-80
2023/03/25 03:34:48;;;;;;;3.67;1.83;;;;;;;;;;5005634;28;20048;-81
2023/03/25 03:37:17;;;;;;;3.60;1.52;;;;;;;;;;4999029;28;20036;-80
2023/03/25 03:39:44;;;;;;;3.78;1.35;;;;;;;;;;5005520;28;20026;-80
2023/03/25 03:42:14;;;;;;;3.80;1.58;;;;;;;;;;4999663;28;20089;-81
2023/03/25 03:44:42;;;;;;;3.90;2.00;;;;;;;;;;5000636;28;20034;-80
2023/03/25 03:47:14;;;;;;;4.45;1.90;;;;;;;;;;5012654;28;20526;-80
2023/03/25 03:49:54;;;;;;;4.00;1.92;;;;;;;;;;5009683;28;20033;-80
2023/03/25 03:52:24;;;;;;;3.83;1.67;;;;;;;;;;5001616;28;20487;-79
2023/03/25 03:54:58;;;;;;;4.18;2.25;;;;;;;;;;5002387;28;20053;-80
2023/03/25 03:57:28;;;;;;;3.47;1.80;;;;;;;;;;5015248;28;20030;-80
2023/03/25 03:59:57;;;;;;;3.97;1.92;;;;;;;;;;5016987;28;20014;-80
2023/03/25 04:02:27;;;;;;;4.30;1.90;;;;;;;;;;5011669;28;20119;-79
2023/03/25 04:04:53;;;;;;;4.63;2.30;;;;;;;;;;5004516;28;20058;-80
2023/03/25 04:07:22;;;;;;;3.78;1.77;;;;;;;;;;5009545;28;20037;-80
2023/03/25 04:09:56;;;;;;;4.30;2.08;;;;;;;;;;4997028;28;20182;-81
2023/03/25 04:12:26;;;;;;;5.05;2.08;;;;;;;;;;4998325;28;20032;-80
2023/03/25 04:14:56;;;;;;;4.53;2.10;;;;;;;;;;5011913;28;20446;-79
2023/03/25 04:17:23;;;;;;;5.28;1.70;;;;;;;;;;4997661;28;20089;-80
2023/03/25 04:19:52;;;;;;;4.28;2.10;;;;;;;;;;4996825;28;20042;-80
2023/03/25 04:22:19;;;;;;;5.43;1.85;;;;;;;;;;5012442;28;20080;-80
2023/03/25 04:24:48;;;;;;;4.88;2.00;;;;;;;;;;5012904;28;20034;-80
2023/03/25 04:27:14;;;;;;;4.68;2.00;;;;;;;;;;5002127;28;20121;-80
2023/03/25 04:29:42;;;;;;;4.07;1.90;;;;;;;;;;4996812;28;20031;-80
2023/03/25 04:32:09;;;;;;;4.35;1.85;;;;;;;;;;4996415;28;20133;-80
2023/03/25 04:34:35;;;;;;;4.50;1.88;;;;;;;;;;5004798;28;20027;-80
2023/03/25 04:37:01;;;;;;;4.60;2.15;;;;;;;;;;5009201;28;20121;-79
2023/03/25 04:39:28;;;;;;;4.32;1.92;;;;;;;;;;4999596;28;20022;-80
2023/03/25 04:42:01;;;;;;;3.85;1.80;;;;;;;;;;5003080;28;20022;-80
2023/03/25 04:44:28;;;;;;;4.85;2.08;;;;;;;;;;5001388;28;20028;-80
2023/03/25 04:46:54;;;;;;;3.50;1.77;;;;;;;;;;5007222;28;20034;-80
2023/03/25 04:49:21;;;;;;;3.80;1.90;;;;;;;;;;5004700;28;20033;-79
2023/03/25 04:51:50;;;;;;;3.92;1.55;;;;;;;;;;5002891;28;20034;-80
2023/03/25 04:54:16;;;;;;;5.88;2.17;;;;;;;;;;5000721;28;20023;-80
2023/03/25 04:56:42;;;;;;;3.95;1.60;;;;;;;;;;4998967;28;20391;-80
2023/03/25 04:59:09;;;;;;;5.30;2.05;;;;;;;;;;5016211;28;20037;-80
2023/03/25 05:01:40;;;;;;;5.05;2.40;;;;;;;;;;5010532;28;20029;-81
2023/03/25 05:04:06;;;;;;;4.32;2.03;;;;;;;;;;4996976;28;20062;-79
2023/03/25 05:06:33;;;;;;;4.72;2.03;;;;;;;;;;4998273;28;20022;-79
2023/03/25 05:09:03;;;;;;;3.78;1.98;;;;;;;;;;5004797;28;20033;-80
2023/03/25 05:11:30;;;;;;;3.58;1.80;;;;;;;;;;5010182;28;20029;-79
2023/03/25 05:13:56;;;;;;;4.25;2.00;;;;;;;;;;5003046;28;20742;-80
2023/03/25 05:19:27;;;;;;;;;;;;;;;;;;5009637;28;20390;-78
2023/03/25 05:21:55;;;;;;;4.00;1.75;;;;;;;;;;5002586;28;19959;-80
2023/03/25 05:24:21;;;;;;;3.90;1.73;;;;;;;;;;5007779;28;20663;-80
2023/03/25 05:26:47;;;;;;;3.42;1.60;;;;;;;;;;4997523;28;20037;-80
2023/03/25 05:29:14;;;;;;;7.22;2.20;;;;;;;;;;5009188;28;20343;-80
2023/03/25 05:31:44;;;;;;;4.88;1.70;;;;;;;;;;5009486;28;20037;-81
2023/03/25 05:34:10;;;;;;;5.07;1.88;;;;;;;;;;5008067;28;20035;-80
2023/03/25 05:36:36;;;;;;;4.20;1.73;;;;;;;;;;4998496;28;20406;-80
2023/03/25 05:39:04;;;;;;;4.85;1.80;;;;;;;;;;5009445;28;20076;-81
2023/03/25 05:41:37;;;;;;;5.10;2.30;;;;;;;;;;4995554;28;20018;-80
2023/03/25 05:44:04;;;;;;;5.13;1.75;;;;;;;;;;5001259;28;20014;-79
2023/03/25 05:46:30;;;;;;;4.25;1.73;;;;;;;;;;5006814;28;20037;-80
2023/03/25 05:48:56;;;;;;;4.53;1.50;;;;;;;;;;4996883;28;20034;-81
2023/03/25 05:51:23;;;;;;;3.55;1.75;;;;;;;;;;5006283;28;20022;-81
2023/03/25 05:53:49;;;;;;;4.32;1.52;;;;;;;;;;5002728;28;20034;-79
2023/03/25 05:56:18;;;;;;;4.03;1.70;;;;;;;;;;5014417;28;20042;-80
2023/03/25 05:58:45;;;;;;;3.90;1.70;;;;;;;;;;5001374;28;20050;-81
2023/03/25 06:01:14;;;;;;;4.25;1.70;;;;;;;;;;5008709;28;20030;-80
2023/03/25 06:03:40;;;;;;;4.57;1.67;;;;;;;;;;5010825;28;20034;-81
2023/03/25 06:06:12;;;;;;;4.15;1.48;;;;;;;;;;5000969;28;20446;-80
2023/03/25 06:08:41;;;;;;;4.53;2.00;;;;;;;;;;4995033;28;20038;-80
2023/03/25 06:11:08;;;;;;;4.05;1.60;;;;;;;;;;5010962;28;20422;-80
2023/03/25 06:13:37;;;;;;;5.90;1.90;;;;;;;;;;5011591;28;20501;-80
2023/03/25 06:16:07;;;;;;;3.85;1.63;;;;;;;;;;4997974;28;20059;-81
2023/03/25 06:18:33;;;;;;;4.68;2.40;;;;;;;;;;5001907;28;20094;-81
2023/03/25 06:20:59;;;;;;;4.40;2.00;;;;;;;;;;5009594;28;20058;-80
2023/03/25 06:23:26;;;;;;;3.95;1.70;;;;;;;;;;5007587;28;20030;-79
2023/03/25 06:25:52;;;;;;;4.20;1.73;;;;;;;;;;5007487;28;20053;-80
2023/03/25 06:28:18;;;;;;;4.10;1.60;;;;;;;;;;5008607;28;20034;-80
2023/03/25 06:30:45;;;;;;;3.78;1.88;;;;;;;;;;5011596;28;20506;-79
2023/03/25 06:33:12;;;;;;;5.43;2.25;;;;;;;;;;5006336;28;20041;-80
2023/03/25 06:35:41;;;;;;;6.10;2.40;;;;;;;;;;4997285;28;20104;-80
2023/03/25 06:38:08;;;;;;;4.65;1.92;;;;;;;;;;5001759;28;20390;-80
2023/03/25 06:40:39;;;;;;;4.07;2.05;;;;;;;;;;5007885;28;20030;-80
2023/03/25 06:43:05;;;;;;;4.20;1.80;;;;;;;;;;4997756;28;20023;-80
2023/03/25 06:45:32;;;;;;;6.30;3.25;;;;;;;;;;4997812;28;20037;-80
2023/03/25 06:47:59;;;;;;;3.28;1.30;;;;;;;;;;5000640;28;20374;-80
2023/03/25 06:50:25;;;;;;;4.50;2.00;;;;;;;;;;5005000;28;20022;-80
2023/03/25 06:52:51;;;;;;;3.88;1.67;;;;;;;;;;5010926;28;20533;-79
2023/03/25 06:55:17;;;;;;;4.80;1.52;;;;;;;;;;4999657;28;20588;-80
2023/03/25 06:57:43;;;;;;;5.25;1.67;;;;;;;;;;5004708;28;20030;-80
2023/03/25 07:00:13;;;;;;;4.00;1.30;;;;;;;;;;5002424;28;20491;-79
2023/03/25 07:02:39;;;;;;;4.30;1.60;;;;;;;;;;5005148;28;20042;-80
2023/03/25 07:05:06;;;;;;;5.15;1.52;;;;;;;;;;4996471;28;21784;-80
2023/03/25 07:07:32;;;;;;;4.07;1.60;;;;;;;;;;5002057;28;20498;-79
2023/03/25 07:09:58;;;;;;;4.53;1.48;;;;;;;;;;4999530;28;20034;-81
2023/03/25 07:12:24;;;;;;;4.68;1.75;;;;;;;;;;5001339;28;20022;-80
2023/03/25 07:14:51;;;;;;;3.67;1.52;;;;;;;;;;5000905;28;20037;-80
2023/03/25 07:17:17;;;;;;;4.40;1.63;;;;;;;;;;4998537;28;20019;-80
2023/03/25 07:19:43;;;;;;;5.32;1.70;;;;;;;;;;4997453;28;20018;-80
2023/03/25 07:22:09;;;;;;;7.15;2.90;;;;;;;;;;5005829;28;20053;-81
2023/03/25 07:24:35;;;;;;;10.05;3.20;;;;;;;;;;5000515;28;20030;-83
2023/03/25 07:27:01;;;;;;;3.72;1.63;;;;;;;;;;5000919;28;20161;-81
2023/03/25 07:29:27;;;;;;;4.53;1.80;;;;;;;;;;5003577;28;20517;-80
2023/03/25 07:31:53;;;;;;;4.53;1.65;;;;;;;;;;5017093;28;20018;-80
2023/03/25 07:34:19;;;;;;;4.93;1.75;;;;;;;;;;5003619;28;20487;-80
2023/03/25 07:36:45;;;;;;;3.03;1.30;;;;;;;;;;5000849;28;20054;-81
2023/03/25 07:39:11;;;;;;;7.05;1.40;;;;;;;;;;4997707;28;20030;-78
2023/03/25 07:41:37;;;;;;;3.15;1.40;;;;;;;;;;5001086;28;20049;-80
2023/03/25 07:44:03;;;;;;;3.70;1.30;;;;;;;;;;5016656;28;20034;-82
2023/03/25 07:46:29;;;;;;;3.42;1.10;;;;;;;;;;5015356;28;20450;-83
2023/03/25 07:48:55;;;;;;;4.05;1.20;;;;;;;;;;5012170;28;20070;-81
2023/03/25 07:51:21;;;;;;;3.42;1.35;;;;;;;;;;4996711;28;20023;-80
2023/03/25 07:53:47;;;;;;;3.63;1.40;;;;;;;;;;5008727;28;20036;-81
2023/03/25 07:56:14;;;;;;;3.75;1.20;;;;;;;;;;5020021;28;20029;-80
2023/03/25 07:58:40;;;;;;;3.42;1.20;;;;;;;;;;5010646;28;20034;-81
2023/03/25 08:01:09;;;;;;;2.97;1.13;;;;;;;;;;5006193;28;20109;-79
2023/03/25 08:03:38;;;;;;;3.30;1.10;;;;;;;;;;4998956;28;20046;-80
2023/03/25 08:06:04;;;;;;;3.15;1.15;;;;;;;;;;4999398;28;20533;-80
2023/03/25 08:08:30;;;;;;;4.47;1.52;;;;;;;;;;5002371;28;20034;-81
2023/03/25 08:10:57;;;;;;;4.45;1.55;;;;;;;;;;5008204;28;20030;-80
2023/03/25 08:13:23;;;;;;;4.28;1.67;;;;;;;;;;5012334;28;20064;-80
2023/03/25 08:15:49;;;;;;;4.53;1.30;;;;;;;;;;5015032;28;20096;-80
2023/03/25 08:18:15;;;;;;;3.78;1.48;;;;;;;;;;4998158;28;20483;-80
2023/03/25 08:20:41;;;;;;;3.92;1.70;;;;;;;;;;5005072;28;20026;-78
2023/03/25 08:23:09;;;;;;;3.22;1.42;;;;;;;;;;5011604;28;20203;-80
2023/03/25 08:25:35;;;;;;;4.20;1.70;;;;;;;;;;5013804;28;20027;-80
2023/03/25 08:28:02;;;;;;;3.08;1.40;;;;;;;;;;5000074;28;20041;-82
2023/03/25 08:30:27;;;;;;;4.00;1.77;;;;;;;;;;4998083;28;20534;-80
2023/03/25 08:32:54;;;;;;;3.97;1.55;;;;;;;;;;4999922;28;20052;-80
2023/03/25 08:35:22;;;;;;;5.35;2.17;;;;;;;;;;5007220;28;20075;-81
2023/03/25 08:37:49;;;;;;;6.20;2.83;;;;;;;;;;5003599;28;20029;-80
2023/03/25 08:40:18;;;;;;;6.38;2.38;;;;;;;;;;5000597;28;20040;-80
2023/03/25 08:42:45;;;;;;;6.18;2.28;;;;;;;;;;5017397;28;20030;-80
2023/03/25 08:45:12;;;;;;;5.55;2.08;;;;;;;;;;5011616;28;20080;-79
2023/03/25 08:47:38;;;;;;;5.45;1.70;;;;;;;;;;5016421;28;20033;-80
2023/03/25 08:50:04;;;;;;;5.70;1.90;;;;;;;;;;5006871;28;20050;-80
2023/03/25 08:52:30;;;;;;;7.35;2.60;;;;;;;;;;5003786;28;20432;-80
2023/03/25 08:54:56;;;;;;;4.70;1.98;;;;;;;;;;5000664;28;20092;-79
2023/03/25 08:57:22;;;;;;;5.22;2.22;;;;;;;;;;4995720;28;20534;-81
2023/03/25 08:59:49;;;;;;;5.35;1.98;;;;;;;;;;4998354;28;20080;-79
2023/03/25 09:02:15;;;;;;;3.42;1.70;;;;;;;;;;5015474;28;20072;-81
2023/03/25 09:04:41;;;;;;;4.80;1.83;;;;;;;;;;5003259;28;20034;-82
2023/03/25 09:07:09;;;;;;;3.97;1.65;;;;;;;;;;4995596;28;20557;-80
2023/03/25 09:09:36;;;;;;;3.03;1.50;;;;;;;;;;4994971;28;20028;-81
2023/03/25 09:12:02;;;;;;;5.68;1.80;;;;;;;;;;5008491;28;20504;-82
2023/03/25 09:14:28;;;;;;;3.83;1.63;;;;;;;;;;4997911;28;20057;-82
2023/03/25 09:16:54;;;;;;;3.90;1.60;;;;;;;;;;4996075;28;20054;-80
2023/03/25 09:19:20;;;;;;;4.00;1.70;;;;;;;;;;4992658;28;20034;-79
2023/03/25 09:21:46;;;;;;;4.88;1.77;;;;;;;;;;5010846;28;20116;-80
2023/03/25 09:24:12;;;;;;;4.97;1.50;;;;;;;;;;5004169;28;20112;-79
2023/03/25 09:26:38;;;;;;;3.78;1.92;;;;;;;;;;4993989;28;20498;-78
2023/03/25 09:29:04;;;;;;;3.83;1.30;;;;;;;;;;5004517;28;20037;-78
2023/03/25 09:31:30;;;;;;;3.47;1.63;;;;;;;;;;5008395;28;20056;-79
2023/03/25 09:33:56;;;;;;;4.97;1.73;;;;;;;;;;5012142;28;20026;-82
2023/03/25 09:36:22;;;;;;;5.53;2.00;;;;;;;;;;4996310;28;20022;-80
2023/03/25 09:38:48;;;;;;;3.92;1.70;;;;;;;;;;4993459;28;20093;-80
2023/03/25 09:41:30;;;;;;;4.20;1.50;;;;;;;;;;4993911;28;20034;-81
2023/03/25 09:44:07;;;;;;;5.30;1.75;;;;;;;;;;4994511;28;20034;-80
2023/03/25 09:46:33;;;;;;;4.53;1.60;;;;;;;;;;5008968;28;20021;-80
2023/03/25 09:49:00;;;;;;;3.92;1.40;;;;;;;;;;5013323;28;20581;-80
2023/03/25 09:51:26;;;;;;;4.78;1.70;;;;;;;;;;5000420;28;20026;-79
2023/03/25 09:53:55;;;;;;;4.03;1.50;;;;;;;;;;5002898;28;20030;-82
2023/03/25 09:56:24;;;;;;;4.68;1.55;;;;;;;;;;4998473;28;20512;-80
2023/03/25 09:58:54;;;;;;;4.28;1.65;;;;;;;;;;4997222;28;20034;-80
2023/03/25 10:01:26;;;;;;;4.40;1.45;;;;;;;;;;5002154;28;20037;-79
2023/03/25 10:03:52;;;;;;;3.03;1.20;;;;;;;;;;5008340;28;20042;-79
2023/03/25 10:06:20;;;;;;;3.55;1.30;;;;;;;;;;5002088;28;20102;-81
2023/03/25 10:08:57;;;;;;;3.42;1.10;;;;;;;;;;5009618;28;20062;-78
2023/03/25 10:11:23;;;;;;;3.45;1.10;;;;;;;;;;4994931;28;20032;-77
2023/03/25 10:13:52;;;;;;;4.57;0.90;;;;;;;;;;4993887;28;20053;-79
2023/03/25 10:16:18;;;;;;;2.35;0.80;;;;;;;;;;4994074;28;20379;-78
2023/03/25 10:18:44;;;;;;;2.75;1.17;;;;;;;;;;4999625;28;20061;-79
2023/03/25 10:21:10;;;;;;;4.07;1.02;;;;;;;;;;4996674;28;20028;-79
2023/03/25 10:23:36;;;;;;;3.92;1.00;;;;;;;;;;4998608;28;20048;-81
2023/03/25 10:26:22;;;;;;;4.50;1.10;;;;;;;;;;4997382;28;20486;-78
2023/03/25 10:28:51;;;;;;;4.63;1.15;;;;;;;;;;5003392;28;20037;-79
2023/03/25 10:31:20;;;;;;;3.28;1.05;;;;;;;;;;5008450;28;20297;-79
2023/03/25 10:33:55;;;;;;;3.40;1.20;;;;;;;;;;5007347;28;20022;-80
2023/03/25 10:36:26;;;;;;;3.88;1.35;;;;;;;;;;5016562;28;20054;-79
2023/03/25 10:39:00;;;;;;;4.28;0.95;;;;;;;;;;5005052;28;20482;-81
2023/03/25 10:41:29;;;;;;;3.72;1.05;;;;;;;;;;4996529;28;20165;-80
2023/03/25 10:43:56;;;;;;;4.00;1.30;;;;;;;;;;5005921;28;20435;-79
2023/03/25 10:46:36;;;;;;;6.15;2.50;;;;;;;;;;5016459;28;20034;-80
2023/03/25 10:49:02;;;;;;;4.93;1.80;;;;;;;;;;5002396;28;20173;-80
2023/03/25 10:51:29;;;;;;;3.35;1.02;;;;;;;;;;4996903;28;20062;-80
2023/03/25 10:53:56;;;;;;;3.15;0.90;;;;;;;;;;5005122;28;20030;-78
2023/03/25 10:56:22;;;;;;;3.78;1.23;;;;;;;;;;5015370;28;20025;-79
2023/03/25 10:58:51;;;;;;;3.47;1.20;;;;;;;;;;5006963;28;20084;-79
2023/03/25 11:01:21;;;;;;;2.42;0.90;;;;;;;;;;4996721;28;20066;-79
2023/03/25 11:03:52;;;;;;;4.25;1.35;;;;;;;;;;5004733;28;20041;-78
2023/03/25 11:06:28;;;;;;;4.43;1.17;;;;;;;;;;5016012;28;20080;-79
2023/03/25 11:09:15;;;;;;;3.60;0.90;;;;;;;;;;5005952;28;20031;-79
2023/03/25 11:11:42;;;;;;;3.25;1.15;;;;;;;;;;4996309;28;20088;-80
2023/03/25 11:14:08;;;;;;;4.45;1.25;;;;;;;;;;5000556;28;20048;-79
2023/03/25 11:16:41;;;;;;;3.90;1.42;;;;;;;;;;5000020;28;20080;-80
2023/03/25 11:19:14;;;;;;;2.10;0.80;;;;;;;;;;4997695;28;20037;-79
2023/03/25 11:21:40;;;;;;;3.05;0.88;;;;;;;;;;4997736;28;20064;-80
2023/03/25 11:24:06;;;;;;;2.75;0.80;;;;;;;;;;4995946;28;20101;-79
2023/03/25 11:26:40;;;;;;;2.70;0.88;;;;;;;;;;4994978;28;20042;-80
2023/03/25 11:29:12;;;;;;;3.03;1.00;;;;;;;;;;4994380;28;20121;-79
2023/03/25 11:31:40;;;;;;;3.13;0.80;;;;;;;;;;5003984;28;20547;-79
2023/03/25 11:34:13;;;;;;;3.30;1.10;;;;;;;;;;5005588;28;20084;-79
2023/03/25 11:36:46;;;;;;;2.38;0.85;;;;;;;;;;4995461;28;20033;-79
2023/03/25 11:39:27;;;;;;;2.33;0.80;;;;;;;;;;4996233;28;20022;-80
2023/03/25 11:41:53;;;;;;;6.40;1.95;;;;;;;;;;5015376;28;20053;-79
2023/03/25 11:44:27;;;;;;;2.55;1.00;;;;;;;;;;5006788;28;20031;-80
2023/03/25 11:46:56;;;;;;;2.58;0.68;;;;;;;;;;5001093;28;20405;-79
2023/03/25 11:49:22;;;;;;;2.35;0.90;;;;;;;;;;4996522;28;20026;-79
2023/03/25 11:51:50;;;;;;;2.25;0.77;;;;;;;;;;5015417;28;20025;-79
2023/03/25 11:54:17;;;;;;;2.08;0.73;;;;;;;;;;5001506;28;20022;-79
2023/03/25 11:56:47;;;;;;;2.53;0.63;;;;;;;;;;4995800;28;20026;-80
2023/03/25 11:59:23;;;;;;;6.55;1.88;;;;;;;;;;5010824;28;20556;-79
2023/03/25 12:01:50;;;;;;;1.92;0.65;;;;;;;;;;5012550;28;20041;-79
2023/03/25 12:04:16;;;;;;;1.33;0.52;;;;;;;;;;5013938;28;20233;-78
2023/03/25 12:06:56;;;;;;;2.35;0.73;;;;;;;;;;4995311;28;20117;-79
2023/03/25 12:09:23;;;;;;;2.17;0.80;;;;;;;;;;5000813;28;20516;-79
2023/03/25 12:11:49;;;;;;;2.50;0.75;;;;;;;;;;4998714;28;20030;-79
2023/03/25 12:14:15;;;;;;;1.55;0.55;;;;;;;;;;5009491;28;20036;-79
2023/03/25 12:16:53;;;;;;;3.35;0.80;;;;;;;;;;5005144;28;20062;-79
2023/03/25 12:19:24;;;;;;;2.55;0.70;;;;;;;;;;5000213;28;20027;-79
2023/03/25 12:22:11;;;;;;;1.05;0.52;;;;;;;;;;5007862;28;20030;-79
2023/03/25 12:24:43;;;;;;;3.78;1.02;;;;;;;;;;5014890;28;20018;-80
2023/03/25 12:27:12;;;;;;;3.70;1.15;;;;;;;;;;4999536;28;20031;-78
2023/03/25 12:29:44;;;;;;;2.50;0.60;;;;;;;;;;4995683;28;20034;-78
2023/03/25 12:32:13;;;;;;;2.15;0.63;;;;;;;;;;5005245;28;20037;-80
2023/03/25 12:34:56;;;;;;;3.42;0.93;;;;;;;;;;5006367;28;20030;-78
2023/03/25 12:37:26;;;;;;;4.00;1.27;;;;;;;;;;4997761;28;20081;-79
2023/03/25 12:40:08;;;;;;;2.47;0.80;;;;;;;;;;4997548;28;20109;-78
2023/03/25 12:42:38;;;;;;;1.98;0.68;;;;;;;;;;5003650;28;20056;-80
2023/03/25 12:45:13;;;;;;;2.47;0.80;;;;;;;;;;5012842;28;20528;-79
2023/03/25 12:47:41;;;;;;;4.03;0.98;;;;;;;;;;5013983;28;20030;-79
2023/03/25 12:50:26;;;;;;;4.22;0.80;;;;;;;;;;5007431;28;20030;-79
2023/03/25 12:53:10;;;;;;;2.47;0.73;;;;;;;;;;5007866;28;20034;-80
2023/03/25 12:55:55;;;;;;;2.67;0.82;;;;;;;;;;5009204;28;20026;-78
2023/03/25 12:58:35;;;;;;;3.38;0.75;;;;;;;;;;5013146;28;20052;-79
2023/03/25 13:01:01;;;;;;;2.25;0.70;;;;;;;;;;5011463;28;20030;-79
2023/03/25 13:03:35;;;;;;;2.97;0.70;;;;;;;;;;4996020;28;20250;-79
2023/03/25 13:06:16;;;;;;;3.78;0.95;;;;;;;;;;5011538;28;20401;-78
2023/03/25 13:08:58;;;;;;;2.92;0.85;;;;;;;;;;5013281;28;20030;-79
2023/03/25 13:11:35;;;;;;;2.47;0.87;;;;;;;;;;5013371;28;20033;-80
2023/03/25 13:14:04;;;;;;;3.55;0.98;;;;;;;;;;4996753;28;20113;-78
2023/03/25 13:16:31;;;;;;;1.83;0.70;;;;;;;;;;5011284;28;20030;-79
2023/03/25 13:19:02;;;;;;;3.60;0.77;;;;;;;;;;5012729;28;20022;-78
2023/03/25 13:21:30;;;;;;;3.63;0.77;;;;;;;;;;5012487;28;20160;-79
2023/03/25 13:23:59;;;;;;;2.33;0.63;;;;;;;;;;4996408;28;20030;-79
2023/03/25 13:26:28;;;;;;;3.83;0.80;;;;;;;;;;4998746;28;20116;-80
2023/03/25 13:28:57;;;;;;;1.95;0.60;;;;;;;;;;4992962;28;20027;-79
2023/03/25 13:31:26;;;;;;;2.53;0.65;;;;;;;;;;5002608;28;20108;-78
2023/03/25 13:34:05;;;;;;;2.08;0.73;;;;;;;;;;4993847;28;20064;-80
2023/03/25 13:36:36;;;;;;;2.03;0.52;;;;;;;;;;5013408;28;20018;-79
2023/03/25 13:39:05;;;;;;;2.13;0.57;;;;;;;;;;5013419;28;20037;-80
2023/03/25 13:41:38;;;;;;;2.15;0.52;;;;;;;;;;5014450;28;20022;-80
2023/03/25 13:44:07;;;;;;;1.90;0.50;;;;;;;;;;4997742;28;20034;-80
2023/03/25 13:46:39;;;;;;;0.93;0.50;;;;;;;;;;5014631;28;20026;-81
2023/03/25 13:49:26;;;;;;;1.27;0.50;;;;;;;;;;5011480;28;20029;-80
2023/03/25 13:51:52;;;;;;;1.75;0.40;;;;;;;;;;5000458;28;20034;-80
2023/03/25 13:54:24;;;;;;;1.80;0.43;;;;;;;;;;5009661;28;20492;-79
2023/03/25 13:56:50;;;;;;;1.90;0.65;;;;;;;;;;5016806;28;20022;-80
2023/03/25 13:59:24;;;;;;;2.10;0.50;;;;;;;;;;5015043;28;20022;-80
2023/03/25 14:01:59;;;;;;;1.67;0.40;;;;;;;;;;5004884;28;20062;-80
2023/03/25 14:04:35;;;;;;;2.53;0.55;;;;;;;;;;4995757;28;20040;-79
